createdAt,value
2022-08-26T00:02:07.147Z,12.40
2022-08-26T00:04:35.227Z,13.20
2022-08-26T00:07:03.197Z,13.38
2022-08-26T00:09:33.578Z,13.07
2022-08-26T00:12:09.591Z,13.55
2022-08-26T00:14:40.827Z,12.57
2022-08-26T00:17:09.437Z,13.23
2022-08-26T00:19:37.475Z,16.33
2022-08-26T00:22:05.681Z,14.43
2022-08-26T00:24:33.725Z,17.13
2022-08-26T00:27:01.494Z,17.75
2022-08-26T00:29:32.014Z,21.33
2022-08-26T00:32:04.054Z,21.40
2022-08-26T00:34:31.929Z,26.27
2022-08-26T00:36:59.685Z,30.13
2022-08-26T00:39:27.371Z,28.13
2022-08-26T00:41:55.758Z,31.77
2022-08-26T00:44:23.807Z,34.03
2022-08-26T00:46:58.303Z,37.03
2022-08-26T00:49:38.198Z,37.53
2022-08-26T00:52:09.877Z,35.45
2022-08-26T00:54:46.612Z,38.33
2022-08-26T00:57:16.871Z,38.25
2022-08-26T00:59:47.780Z,39.53
2022-08-26T01:02:21.246Z,40.87
2022-08-26T01:04:55.495Z,42.97
2022-08-26T01:07:26.132Z,47.45
2022-08-26T01:09:54.431Z,46.17
2022-08-26T01:12:24.867Z,44.85
2022-08-26T01:14:53.359Z,49.58
2022-08-26T01:17:22.758Z,44.40
2022-08-26T01:19:53.880Z,45.80
2022-08-26T01:22:28.630Z,51.13
2022-08-26T01:24:58.429Z,52.70
2022-08-26T01:27:32.928Z,46.65
2022-08-26T01:30:03.234Z,53.60
2022-08-26T01:32:34.199Z,52.05
2022-08-26T01:35:03.045Z,52.10
2022-08-26T01:37:40.476Z,55.75
2022-08-26T01:40:17.695Z,57.58
2022-08-26T01:42:46.601Z,54.35
2022-08-26T01:45:18.377Z,51.40
2022-08-26T01:47:49.663Z,58.75
2022-08-26T01:50:30.358Z,56.92
2022-08-26T01:52:59.948Z,60.92
2022-08-26T01:55:33.432Z,56.88
2022-08-26T01:58:06.170Z,60.05
2022-08-26T02:00:35.317Z,55.40
2022-08-26T02:03:17.867Z,59.20
2022-08-26T02:05:48.772Z,56.08
2022-08-26T02:08:24.849Z,55.72
2022-08-26T02:10:55.398Z,58.50
2022-08-26T02:13:25.417Z,54.35
2022-08-26T02:15:54.495Z,56.05
2022-08-26T02:18:22.935Z,56.58
2022-08-26T02:20:51.633Z,60.03
2022-08-26T02:23:19.620Z,57.63
2022-08-26T02:25:50.196Z,60.90
2022-08-26T02:28:19.764Z,58.50
2022-08-26T02:30:48.890Z,57.22
2022-08-26T02:33:16.663Z,51.17
2022-08-26T02:35:44.450Z,56.60
2022-08-26T02:38:12.136Z,55.65
2022-08-26T02:40:43.820Z,56.63
2022-08-26T02:43:12.508Z,60.35
2022-08-26T02:45:42.946Z,58.05
2022-08-26T02:48:15.374Z,60.72
2022-08-26T02:53:13.289Z,52.20
2022-08-26T02:55:42.224Z,53.92
2022-08-26T02:58:11.225Z,52.38
2022-08-26T03:00:53.093Z,52.03
2022-08-26T03:03:22.528Z,57.92
2022-08-26T03:05:51.525Z,47.85
2022-08-26T03:08:19.361Z,54.50
2022-08-26T03:10:47.598Z,52.95
2022-08-26T03:13:16.357Z,50.75
2022-08-26T03:15:47.697Z,47.05
2022-08-26T03:18:16.190Z,52.08
2022-08-26T03:20:44.086Z,51.85
2022-08-26T03:23:12.416Z,53.97
2022-08-26T03:25:40.115Z,46.90
2022-08-26T03:28:07.858Z,54.08
2022-08-26T03:30:45.766Z,48.67
2022-08-26T03:33:15.345Z,50.10
2022-08-26T03:35:45.204Z,50.60
2022-08-26T03:38:12.983Z,50.35
2022-08-26T03:40:42.448Z,49.00
2022-08-26T03:43:11.797Z,51.42
2022-08-26T03:45:40.828Z,45.42
2022-08-26T03:48:09.022Z,44.75
2022-08-26T03:50:38.875Z,48.03
2022-08-26T03:53:07.527Z,46.05
2022-08-26T03:55:40.505Z,48.55
2022-08-26T03:58:08.307Z,44.72
2022-08-26T04:00:36.003Z,45.60
2022-08-26T04:03:04.031Z,44.13
2022-08-26T04:05:31.828Z,46.08
2022-08-26T04:08:00.865Z,48.35
2022-08-26T04:10:29.543Z,47.65
2022-08-26T04:13:03.771Z,46.50
2022-08-26T04:15:31.740Z,43.75
2022-08-26T04:17:59.495Z,48.35
2022-08-26T04:20:28.454Z,45.30
2022-08-26T04:22:56.125Z,45.67
2022-08-26T04:25:26.241Z,46.10
2022-08-26T04:27:53.893Z,41.40
2022-08-26T04:30:22.140Z,37.92
2022-08-26T04:32:49.929Z,41.67
2022-08-26T04:35:17.733Z,43.80
2022-08-26T04:37:45.438Z,41.90
2022-08-26T04:40:13.560Z,44.55
2022-08-26T04:42:42.648Z,41.42
2022-08-26T04:45:11.718Z,45.30
2022-08-26T04:47:39.610Z,43.55
2022-08-26T04:50:08.878Z,41.67
2022-08-26T04:52:38.747Z,44.80
2022-08-26T04:55:08.639Z,40.80
2022-08-26T04:57:36.732Z,43.47
2022-08-26T05:00:07.563Z,45.15
2022-08-26T05:02:36.145Z,39.70
2022-08-26T05:05:04.615Z,40.58
2022-08-26T05:07:32.649Z,43.10
2022-08-26T05:10:00.404Z,39.58
2022-08-26T05:12:29.467Z,41.25
2022-08-26T05:14:57.191Z,37.67
2022-08-26T05:17:27.938Z,35.30
2022-08-26T05:19:55.621Z,35.67
2022-08-26T05:22:23.356Z,37.05
2022-08-26T05:24:51.137Z,35.17
2022-08-26T05:27:19.450Z,33.70
2022-08-26T05:29:48.172Z,34.78
2022-08-26T05:32:22.274Z,33.03
2022-08-26T05:34:55.339Z,37.30
2022-08-26T05:37:23.114Z,33.17
2022-08-26T05:39:51.479Z,33.30
2022-08-26T05:42:19.852Z,32.80
2022-08-26T05:44:55.534Z,33.70
2022-08-26T05:47:24.272Z,34.42
2022-08-26T05:49:53.724Z,32.95
2022-08-26T05:52:21.499Z,32.60
2022-08-26T05:54:53.557Z,30.33
2022-08-26T05:57:23.203Z,29.23
2022-08-26T05:59:51.574Z,33.03
2022-08-26T06:02:19.410Z,28.00
2022-08-26T06:04:47.361Z,35.17
2022-08-26T06:07:17.062Z,31.58
2022-08-26T06:09:46.293Z,32.22
2022-08-26T06:12:13.983Z,33.00
2022-08-26T06:14:42.857Z,31.08
2022-08-26T06:17:10.651Z,29.05
2022-08-26T06:19:38.442Z,27.25
2022-08-26T06:22:29.149Z,29.67
2022-08-26T06:25:15.409Z,31.05
2022-08-26T06:27:43.345Z,30.30
2022-08-26T06:30:12.552Z,28.70
2022-08-26T06:32:40.260Z,26.13
2022-08-26T06:35:12.174Z,28.02
2022-08-26T06:40:11.678Z,26.63
2022-08-26T06:42:39.548Z,29.73
2022-08-26T06:45:08.594Z,30.25
2022-08-26T06:47:36.540Z,47.00
2022-08-26T06:50:04.401Z,41.80
2022-08-26T06:52:32.162Z,44.67
2022-08-26T06:54:59.908Z,44.80
2022-08-26T06:57:32.255Z,43.22
2022-08-26T07:00:00.074Z,34.05
2022-08-26T07:02:28.620Z,33.95
2022-08-26T07:04:56.912Z,32.03
2022-08-26T07:07:24.740Z,28.95
2022-08-26T07:09:52.704Z,24.42
2022-08-26T07:12:20.522Z,24.27
2022-08-26T07:14:50.091Z,21.63
2022-08-26T07:17:18.193Z,21.13
2022-08-26T07:19:48.718Z,20.77
2022-08-26T07:22:17.176Z,18.40
2022-08-26T07:24:45.597Z,16.73
2022-08-26T07:27:16.296Z,20.92
2022-08-26T07:29:45.250Z,20.03
2022-08-26T07:32:16.299Z,17.67
2022-08-26T07:34:44.282Z,18.77
2022-08-26T07:37:12.636Z,18.20
2022-08-26T07:39:41.750Z,18.58
2022-08-26T07:42:14.259Z,18.52
2022-08-26T07:44:43.201Z,12.88
2022-08-26T07:47:25.136Z,13.00
2022-08-26T07:49:56.488Z,17.25
2022-08-26T07:52:27.070Z,15.88
2022-08-26T07:54:55.783Z,15.32
2022-08-26T07:57:24.292Z,17.02
2022-08-26T07:59:52.388Z,17.58
2022-08-26T08:02:23.173Z,18.92
2022-08-26T08:04:51.657Z,15.98
2022-08-26T08:07:20.903Z,19.27
2022-08-26T08:09:53.712Z,17.52
2022-08-26T08:12:21.705Z,18.13
2022-08-26T08:14:49.979Z,19.08
2022-08-26T08:17:17.916Z,15.85
2022-08-26T08:19:46.962Z,14.88
2022-08-26T08:22:19.807Z,12.50
2022-08-26T08:24:53.046Z,13.77
2022-08-26T08:27:23.817Z,10.13
2022-08-26T08:29:54.286Z,13.20
2022-08-26T08:32:23.141Z,14.50
2022-08-26T08:34:50.989Z,11.43
2022-08-26T08:37:18.749Z,10.63
2022-08-26T08:39:46.528Z,11.30
2022-08-26T08:42:39.629Z,11.27
2022-08-26T08:45:11.538Z,9.48
2022-08-26T08:47:43.094Z,12.55
2022-08-26T08:50:22.173Z,10.68
2022-08-26T08:52:56.359Z,10.45
2022-08-26T08:55:30.954Z,9.02
2022-08-26T08:58:05.676Z,10.40
2022-08-26T09:00:44.147Z,13.15
2022-08-26T09:03:28.203Z,13.82
2022-08-26T09:05:58.837Z,12.63
2022-08-26T09:08:35.121Z,10.18
2022-08-26T09:11:04.581Z,9.25
2022-08-26T09:13:37.133Z,7.78
2022-08-26T09:16:10.323Z,8.57
2022-08-26T09:19:11.245Z,12.65
2022-08-26T09:21:39.187Z,11.40
2022-08-26T09:24:07.934Z,10.68
2022-08-26T09:29:23.274Z,9.00
2022-08-26T09:31:52.585Z,8.88
2022-08-26T09:34:23.039Z,11.63
2022-08-26T09:36:52.046Z,8.35
2022-08-26T09:39:33.239Z,7.63
2022-08-26T09:42:09.611Z,10.18
2022-08-26T09:44:53.965Z,10.20
2022-08-26T09:47:24.185Z,9.98
2022-08-26T09:50:00.545Z,11.75
2022-08-26T09:52:30.023Z,7.72
2022-08-26T09:55:11.508Z,10.02
2022-08-26T09:57:47.533Z,7.33
2022-08-26T10:00:30.155Z,10.90
2022-08-26T10:02:59.055Z,9.75
2022-08-26T10:05:33.751Z,10.98
2022-08-26T10:08:15.700Z,7.90
2022-08-26T10:10:46.244Z,11.23
2022-08-26T10:13:23.447Z,11.10
2022-08-26T10:16:00.521Z,9.20
2022-08-26T10:18:34.691Z,11.73
2022-08-26T10:21:07.878Z,12.02
2022-08-26T10:23:42.556Z,13.98
2022-08-26T10:26:15.778Z,11.35
2022-08-26T10:28:49.458Z,10.57
2022-08-26T10:31:27.530Z,11.10
2022-08-26T10:33:58.817Z,9.02
2022-08-26T10:37:13.487Z,11.85
2022-08-26T10:39:40.622Z,9.40
2022-08-26T10:42:14.849Z,9.30
2022-08-26T10:44:44.923Z,12.27
2022-08-26T10:47:20.460Z,10.55
2022-08-26T10:49:50.534Z,10.27
2022-08-26T10:52:23.123Z,11.05
2022-08-26T10:55:05.154Z,9.75
2022-08-26T10:57:45.472Z,8.57
2022-08-26T11:00:38.076Z,11.48
2022-08-26T11:03:21.925Z,11.85
2022-08-26T11:06:17.244Z,9.32
2022-08-26T11:08:47.910Z,9.77
2022-08-26T11:11:45.349Z,9.00
2022-08-26T11:14:53.690Z,10.40
2022-08-26T11:17:56.455Z,7.63
2022-08-26T11:20:36.434Z,8.50
2022-08-26T11:23:40.485Z,7.55
2022-08-26T11:26:35.524Z,11.57
2022-08-26T11:29:12.834Z,6.85
2022-08-26T11:31:55.924Z,9.13
2022-08-26T11:34:54.075Z,9.30
2022-08-26T11:37:27.407Z,6.90
2022-08-26T11:39:57.177Z,8.88
2022-08-26T11:42:33.181Z,11.70
2022-08-26T11:45:05.402Z,8.20
2022-08-26T11:47:33.582Z,7.93
2022-08-26T11:50:10.551Z,9.45
2022-08-26T11:52:39.707Z,7.40
2022-08-26T11:55:11.053Z,8.15
2022-08-26T11:57:44.882Z,6.80
2022-08-26T12:00:22.358Z,8.88
2022-08-26T12:02:52.384Z,6.75
2022-08-26T12:05:25.130Z,8.32
2022-08-26T12:07:56.384Z,9.85
2022-08-26T12:10:33.562Z,8.02
2022-08-26T12:13:03.880Z,6.93
2022-08-26T12:15:33.264Z,7.57
2022-08-26T12:18:28.907Z,6.65
2022-08-26T12:21:00.182Z,5.90
2022-08-26T12:23:44.071Z,8.73
2022-08-26T12:26:19.376Z,9.60
2022-08-26T12:28:49.556Z,6.90
2022-08-26T12:31:24.086Z,7.80
2022-08-26T12:33:53.946Z,9.75
2022-08-26T12:36:25.642Z,6.32
2022-08-26T12:38:58.240Z,7.00
2022-08-26T12:41:48.022Z,7.78
2022-08-26T12:44:39.343Z,5.07
2022-08-26T12:47:21.866Z,7.93
2022-08-26T12:50:03.178Z,7.97
2022-08-26T12:52:32.624Z,7.65
2022-08-26T12:55:05.351Z,8.50
2022-08-26T12:57:36.538Z,7.97
2022-08-26T13:00:31.513Z,7.20
2022-08-26T13:03:01.647Z,7.70
2022-08-26T13:05:33.066Z,5.82
2022-08-26T13:08:12.020Z,6.85
2022-08-26T13:10:44.344Z,6.50
2022-08-26T13:13:12.173Z,6.07
2022-08-26T13:15:39.921Z,6.57
2022-08-26T13:18:07.947Z,6.47
2022-08-26T13:20:35.853Z,7.07
2022-08-26T13:23:04.367Z,5.40
2022-08-26T13:25:32.133Z,4.63
2022-08-26T13:28:01.262Z,6.00
2022-08-26T13:30:29.140Z,8.95
2022-08-26T13:33:00.747Z,6.30
2022-08-26T13:35:29.974Z,4.30
2022-08-26T13:37:57.855Z,7.25
2022-08-26T13:40:26.149Z,6.38
2022-08-26T13:42:53.939Z,7.78
2022-08-26T13:45:22.984Z,5.38
2022-08-26T13:47:50.723Z,6.72
2022-08-26T13:50:18.595Z,7.32
2022-08-26T13:52:46.653Z,6.80
2022-08-26T13:55:14.423Z,6.95
2022-08-26T13:57:42.118Z,6.88
2022-08-26T14:00:11.610Z,6.25
2022-08-26T14:02:40.989Z,7.80
2022-08-26T14:05:10.390Z,6.63
2022-08-26T14:07:38.154Z,6.97
2022-08-26T14:10:06.601Z,12.68
2022-08-26T14:12:34.611Z,8.88
2022-08-26T14:15:02.378Z,7.22
2022-08-26T14:17:30.767Z,7.90
2022-08-26T14:20:00.067Z,6.63
2022-08-26T14:22:27.792Z,8.20
2022-08-26T14:24:56.477Z,7.32
2022-08-26T14:27:25.211Z,7.45
2022-08-26T14:29:52.988Z,6.72
2022-08-26T14:32:25.896Z,5.70
2022-08-26T14:34:53.731Z,8.48
2022-08-26T14:37:23.317Z,9.75
2022-08-26T14:39:51.692Z,7.10
2022-08-26T14:42:23.784Z,5.50
2022-08-26T14:47:21.579Z,7.63
2022-08-26T14:49:49.347Z,5.38
2022-08-26T14:52:17.533Z,6.35
2022-08-26T14:54:45.680Z,4.07
2022-08-26T14:57:14.933Z,9.23
2022-08-26T14:59:49.644Z,5.88
2022-08-26T15:02:27.743Z,7.15
2022-08-26T15:05:01.459Z,7.43
2022-08-26T15:07:29.216Z,7.22
2022-08-26T15:09:58.307Z,7.07
2022-08-26T15:12:26.070Z,7.75
2022-08-26T15:14:53.886Z,8.38
2022-08-26T15:17:21.587Z,7.00
2022-08-26T15:19:49.314Z,6.75
2022-08-26T15:22:17.043Z,5.75
2022-08-26T15:24:44.833Z,9.52
2022-08-26T15:27:14.032Z,6.15
2022-08-26T15:29:41.807Z,7.32
2022-08-26T15:32:09.599Z,5.65
2022-08-26T15:34:37.524Z,6.90
2022-08-26T15:37:06.114Z,7.20
2022-08-26T15:39:35.392Z,4.18
2022-08-26T15:42:03.661Z,6.05
2022-08-26T15:44:34.035Z,6.72
2022-08-26T15:47:01.778Z,5.28
2022-08-26T15:49:29.609Z,6.82
2022-08-26T15:51:57.450Z,6.90
2022-08-26T15:54:25.635Z,5.30
2022-08-26T15:56:53.821Z,4.72
2022-08-26T15:59:22.673Z,6.30
2022-08-26T16:01:52.392Z,6.60
2022-08-26T16:04:20.466Z,7.97
2022-08-26T16:06:50.240Z,5.70
2022-08-26T16:09:18.852Z,4.68
2022-08-26T16:11:46.924Z,3.88
2022-08-26T16:14:14.664Z,5.95
2022-08-26T16:16:42.560Z,6.32
2022-08-26T16:19:12.358Z,5.45
2022-08-26T16:21:41.625Z,5.97
2022-08-26T16:24:09.679Z,5.03
2022-08-26T16:26:39.359Z,7.45
2022-08-26T16:29:09.846Z,6.00
2022-08-26T16:31:38.486Z,4.68
2022-08-26T16:34:06.535Z,8.25
2022-08-26T16:36:39.599Z,5.43
2022-08-26T16:39:08.553Z,6.72
2022-08-26T16:41:36.400Z,4.60
2022-08-26T16:44:05.109Z,5.85
2022-08-26T16:46:33.472Z,3.92
2022-08-26T16:49:03.879Z,6.13
2022-08-26T16:51:37.758Z,3.65
2022-08-26T16:54:08.814Z,5.85
2022-08-26T16:56:37.651Z,5.13
2022-08-26T16:59:06.432Z,5.50
2022-08-26T17:01:34.383Z,6.63
2022-08-26T17:04:02.238Z,4.93
2022-08-26T17:06:30.065Z,6.68
2022-08-26T17:08:57.851Z,7.65
2022-08-26T17:11:26.964Z,7.55
2022-08-26T17:13:54.774Z,6.47
2022-08-26T17:16:26.588Z,4.55
2022-08-26T17:18:56.055Z,7.25
2022-08-26T17:21:23.955Z,4.78
2022-08-26T17:23:51.824Z,6.70
2022-08-26T17:26:19.822Z,4.30
2022-08-26T17:28:49.058Z,5.80
2022-08-26T17:31:17.083Z,5.72
2022-08-26T17:33:47.721Z,6.75
2022-08-26T17:36:18.493Z,4.78
2022-08-26T17:38:46.394Z,6.22
2022-08-26T17:41:16.546Z,6.28
2022-08-26T17:43:44.569Z,4.30
2022-08-26T17:46:19.856Z,5.65
2022-08-26T17:48:48.366Z,5.13
2022-08-26T17:51:19.302Z,5.50
2022-08-26T17:53:49.166Z,8.25
2022-08-26T17:56:18.960Z,6.63
2022-08-26T17:58:50.995Z,5.88
2022-08-26T18:01:21.669Z,5.85
2022-08-26T18:03:50.327Z,10.90
2022-08-26T18:06:18.409Z,6.65
2022-08-26T18:08:46.705Z,7.40
2022-08-26T18:11:17.272Z,4.25
2022-08-26T18:13:47.196Z,4.95
2022-08-26T18:16:17.137Z,4.70
2022-08-26T18:18:47.718Z,6.65
2022-08-26T18:21:18.222Z,5.07
2022-08-26T18:23:46.828Z,6.68
2022-08-26T18:26:17.887Z,4.38
2022-08-26T18:28:46.089Z,5.25
2022-08-26T18:31:14.986Z,5.53
2022-08-26T18:33:44.263Z,5.95
2022-08-26T18:36:19.771Z,6.80
2022-08-26T18:38:52.389Z,3.47
2022-08-26T18:41:21.659Z,7.03
2022-08-26T18:43:50.486Z,4.85
2022-08-26T18:46:20.802Z,4.60
2022-08-26T18:48:50.924Z,5.82
2022-08-26T18:51:24.700Z,5.53
2022-08-26T18:53:53.212Z,4.07
2022-08-26T18:56:21.356Z,3.70
2022-08-26T18:58:50.066Z,4.55
2022-08-26T19:01:21.574Z,5.95
2022-08-26T19:03:52.564Z,3.95
2022-08-26T19:06:24.367Z,3.35
2022-08-26T19:08:52.634Z,6.07
2022-08-26T19:11:32.324Z,4.75
2022-08-26T19:14:06.481Z,4.88
2022-08-26T19:16:35.383Z,6.60
2022-08-26T19:19:03.862Z,6.40
2022-08-26T19:21:35.029Z,6.68
2022-08-26T19:24:06.470Z,5.35
2022-08-26T19:26:35.046Z,5.93
2022-08-26T19:29:03.246Z,7.95
2022-08-26T19:31:31.376Z,5.72
2022-08-26T19:33:59.751Z,5.20
2022-08-26T19:36:28.988Z,6.68
2022-08-26T19:38:58.901Z,8.02
2022-08-26T19:41:36.574Z,5.30
2022-08-26T19:44:07.980Z,7.18
2022-08-26T19:46:39.994Z,5.57
2022-08-26T19:49:08.705Z,5.70
2022-08-26T19:51:36.769Z,5.30
2022-08-26T19:54:06.592Z,6.82
2022-08-26T19:56:35.026Z,5.75
2022-08-26T19:59:03.150Z,8.85
2022-08-26T20:01:31.781Z,4.40
2022-08-26T20:03:59.841Z,6.57
2022-08-26T20:06:28.028Z,6.25
2022-08-26T20:08:56.265Z,6.57
2022-08-26T20:11:25.960Z,7.53
2022-08-26T20:13:54.391Z,4.75
2022-08-26T20:16:22.398Z,4.63
2022-08-26T20:19:07.866Z,5.28
2022-08-26T20:21:38.326Z,5.30
2022-08-26T20:24:08.836Z,7.03
2022-08-26T20:26:40.979Z,6.43
2022-08-26T20:29:10.631Z,5.75
2022-08-26T20:31:39.412Z,4.28
2022-08-26T20:34:07.835Z,5.70
2022-08-26T20:36:35.944Z,6.32
2022-08-26T20:39:04.238Z,3.78
2022-08-26T20:41:32.956Z,5.53
2022-08-26T20:44:02.917Z,8.45
2022-08-26T20:46:31.519Z,6.28
2022-08-26T20:48:59.552Z,3.75
2022-08-26T20:51:29.370Z,7.00
2022-08-26T20:53:57.357Z,6.00
2022-08-26T20:56:25.689Z,4.40
2022-08-26T20:58:55.729Z,5.47
2022-08-26T21:01:28.199Z,6.30
2022-08-26T21:03:57.638Z,4.20
2022-08-26T21:06:25.920Z,6.88
2022-08-26T21:08:54.621Z,6.47
2022-08-26T21:11:22.956Z,7.43
2022-08-26T21:14:06.934Z,4.65
2022-08-26T21:16:41.839Z,8.45
2022-08-26T21:19:12.159Z,6.70
2022-08-26T21:21:40.793Z,5.25
2022-08-26T21:24:09.455Z,6.40
2022-08-26T21:26:37.628Z,9.25
2022-08-26T21:29:06.809Z,5.18
2022-08-26T21:31:35.039Z,7.43
2022-08-26T21:34:04.936Z,6.40
2022-08-26T21:36:32.988Z,5.82
2022-08-26T21:39:01.661Z,7.80
2022-08-26T21:41:30.107Z,9.80
2022-08-26T21:43:59.841Z,6.10
2022-08-26T21:46:31.189Z,5.80
2022-08-26T21:49:01.288Z,6.78
2022-08-26T21:51:34.007Z,8.10
2022-08-26T21:54:06.549Z,7.28
2022-08-26T21:56:44.184Z,5.65
2022-08-26T21:59:12.322Z,5.13
2022-08-26T22:01:40.643Z,7.22
2022-08-26T22:04:10.815Z,5.70
2022-08-26T22:06:44.346Z,5.22
2022-08-26T22:09:13.439Z,7.28
2022-08-26T22:11:41.799Z,7.53
2022-08-26T22:14:10.286Z,6.15
2022-08-26T22:16:38.289Z,5.85
2022-08-26T22:19:06.496Z,5.78
2022-08-26T22:21:35.766Z,6.15
2022-08-26T22:24:07.169Z,10.18
2022-08-26T22:26:36.266Z,7.82
2022-08-26T22:29:06.463Z,8.35
2022-08-26T22:31:37.176Z,5.13
2022-08-26T22:34:07.538Z,6.10
2022-08-26T22:36:39.784Z,5.05
2022-08-26T22:39:14.391Z,8.88
2022-08-26T22:41:43.026Z,6.15
2022-08-26T22:44:12.745Z,8.07
2022-08-26T22:46:42.129Z,10.13
2022-08-26T22:49:11.353Z,6.95
2022-08-26T22:51:39.437Z,9.93
2022-08-26T22:54:07.879Z,7.75
2022-08-26T22:56:38.379Z,7.45
2022-08-26T22:59:07.842Z,7.13
2022-08-26T23:01:37.351Z,8.40
2022-08-26T23:04:07.050Z,9.35
2022-08-26T23:06:36.505Z,9.52
2022-08-26T23:09:05.365Z,5.93
2022-08-26T23:11:33.679Z,6.65
2022-08-26T23:14:06.366Z,6.63
2022-08-26T23:16:39.273Z,10.00
2022-08-26T23:19:08.837Z,6.32
2022-08-26T23:21:37.153Z,7.70
2022-08-26T23:24:05.854Z,7.00
2022-08-26T23:26:34.655Z,9.35
2022-08-26T23:29:05.135Z,6.07
2022-08-26T23:31:34.023Z,10.73
2022-08-26T23:34:19.272Z,8.07
2022-08-26T23:36:47.486Z,7.55
2022-08-26T23:39:15.281Z,9.93
2022-08-26T23:41:43.262Z,6.50
2022-08-26T23:44:12.703Z,7.00
2022-08-26T23:46:40.492Z,8.57
2022-08-26T23:49:08.274Z,7.78
2022-08-26T23:51:53.659Z,7.45
2022-08-26T23:54:21.441Z,9.73
2022-08-26T23:56:49.201Z,6.93
2022-08-26T23:59:18.305Z,7.65
